sensor_id;sensor_type;location;lat;lon;timestamp;temperature;humidity
14053;DHT22;7101;51.600;7.310;2023-06-22T00:01:12;20.80;99.90
14053;DHT22;7101;51.600;7.310;2023-06-22T00:03:39;20.90;99.90
14053;DHT22;7101;51.600;7.310;2023-06-22T00:06:07;20.90;99.90
14053;DHT22;7101;51.600;7.310;2023-06-22T00:08:34;21.00;99.90
14053;DHT22;7101;51.600;7.310;2023-06-22T00:11:01;21.00;99.90
14053;DHT22;7101;51.600;7.310;2023-06-22T00:13:28;20.90;99.90
14053;DHT22;7101;51.600;7.310;2023-06-22T00:15:54;20.90;99.90
14053;DHT22;7101;51.600;7.310;2023-06-22T00:18:22;20.80;99.90
14053;DHT22;7101;51.600;7.310;2023-06-22T00:20:54;20.80;99.90
14053;DHT22;7101;51.600;7.310;2023-06-22T00:23:24;20.80;99.90
14053;DHT22;7101;51.600;7.310;2023-06-22T00:25:51;20.70;99.90
14053;DHT22;7101;51.600;7.310;2023-06-22T00:28:18;20.80;99.90
14053;DHT22;7101;51.600;7.310;2023-06-22T00:30:45;20.60;99.90
14053;DHT22;7101;51.600;7.310;2023-06-22T00:33:13;20.60;99.90
14053;DHT22;7101;51.600;7.310;2023-06-22T00:35:41;20.40;99.90
14053;DHT22;7101;51.600;7.310;2023-06-22T00:38:08;20.30;99.90
14053;DHT22;7101;51.600;7.310;2023-06-22T00:40:36;20.40;99.90
14053;DHT22;7101;51.600;7.310;2023-06-22T00:43:04;20.40;99.90
14053;DHT22;7101;51.600;7.310;2023-06-22T00:45:31;20.50;99.90
14053;DHT22;7101;51.600;7.310;2023-06-22T00:47:58;20.40;99.90
14053;DHT22;7101;51.600;7.310;2023-06-22T00:50:27;20.30;99.90
14053;DHT22;7101;51.600;7.310;2023-06-22T00:53:00;20.30;99.90
14053;DHT22;7101;51.600;7.310;2023-06-22T00:55:27;20.20;99.90
14053;DHT22;7101;51.600;7.310;2023-06-22T00:58:06;20.10;99.90
14053;DHT22;7101;51.600;7.310;2023-06-22T01:00:36;20.00;99.90
14053;DHT22;7101;51.600;7.310;2023-06-22T01:03:04;19.90;99.90
14053;DHT22;7101;51.600;7.310;2023-06-22T01:05:34;19.90;99.90
14053;DHT22;7101;51.600;7.310;2023-06-22T01:08:08;19.90;99.90
14053;DHT22;7101;51.600;7.310;2023-06-22T01:10:40;20.00;99.90
14053;DHT22;7101;51.600;7.310;2023-06-22T01:13:15;20.00;99.90
14053;DHT22;7101;51.600;7.310;2023-06-22T01:15:48;20.00;99.90
14053;DHT22;7101;51.600;7.310;2023-06-22T01:18:17;20.10;99.90
14053;DHT22;7101;51.600;7.310;2023-06-22T01:20:45;20.10;99.90
14053;DHT22;7101;51.600;7.310;2023-06-22T01:23:28;19.90;99.90
14053;DHT22;7101;51.600;7.310;2023-06-22T01:26:02;19.90;99.90
14053;DHT22;7101;51.600;7.310;2023-06-22T01:28:50;19.80;99.90
14053;DHT22;7101;51.600;7.310;2023-06-22T01:31:22;19.80;99.90
14053;DHT22;7101;51.600;7.310;2023-06-22T01:33:52;19.90;99.90
14053;DHT22;7101;51.600;7.310;2023-06-22T01:36:21;20.00;99.90
14053;DHT22;7101;51.600;7.310;2023-06-22T01:38:48;20.00;99.90
14053;DHT22;7101;51.600;7.310;2023-06-22T01:41:16;20.10;99.90
14053;DHT22;7101;51.600;7.310;2023-06-22T01:43:44;20.00;99.90
14053;DHT22;7101;51.600;7.310;2023-06-22T01:46:14;20.00;99.90
14053;DHT22;7101;51.600;7.310;2023-06-22T01:48:41;20.00;99.90
14053;DHT22;7101;51.600;7.310;2023-06-22T01:51:08;19.90;99.90
14053;DHT22;7101;51.600;7.310;2023-06-22T01:53:35;19.90;99.90
14053;DHT22;7101;51.600;7.310;2023-06-22T01:56:01;20.00;99.90
14053;DHT22;7101;51.600;7.310;2023-06-22T01:58:29;20.00;99.90
14053;DHT22;7101;51.600;7.310;2023-06-22T02:01:06;19.90;99.90
14053;DHT22;7101;51.600;7.310;2023-06-22T02:03:40;19.90;99.90
14053;DHT22;7101;51.600;7.310;2023-06-22T02:06:11;19.90;99.90
14053;DHT22;7101;51.600;7.310;2023-06-22T02:08:47;19.90;99.90
14053;DHT22;7101;51.600;7.310;2023-06-22T02:11:19;19.70;99.90
14053;DHT22;7101;51.600;7.310;2023-06-22T02:13:47;19.60;99.90
14053;DHT22;7101;51.600;7.310;2023-06-22T02:16:14;19.60;99.90
14053;DHT22;7101;51.600;7.310;2023-06-22T02:18:47;19.70;99.90
14053;DHT22;7101;51.600;7.310;2023-06-22T02:21:16;19.80;99.90
14053;DHT22;7101;51.600;7.310;2023-06-22T02:23:43;19.70;99.90
14053;DHT22;7101;51.600;7.310;2023-06-22T02:26:10;19.60;99.90
14053;DHT22;7101;51.600;7.310;2023-06-22T02:28:37;19.60;99.90
14053;DHT22;7101;51.600;7.310;2023-06-22T02:31:04;19.70;99.90
14053;DHT22;7101;51.600;7.310;2023-06-22T02:33:31;19.60;99.90
14053;DHT22;7101;51.600;7.310;2023-06-22T02:35:59;19.60;99.90
14053;DHT22;7101;51.600;7.310;2023-06-22T02:38:25;19.50;99.90
14053;DHT22;7101;51.600;7.310;2023-06-22T02:40:52;19.60;99.90
14053;DHT22;7101;51.600;7.310;2023-06-22T02:43:19;19.60;99.90
14053;DHT22;7101;51.600;7.310;2023-06-22T02:45:46;19.50;99.90
14053;DHT22;7101;51.600;7.310;2023-06-22T02:48:14;19.60;99.90
14053;DHT22;7101;51.600;7.310;2023-06-22T02:50:41;19.60;99.90
14053;DHT22;7101;51.600;7.310;2023-06-22T02:53:09;19.70;99.90
14053;DHT22;7101;51.600;7.310;2023-06-22T02:55:36;19.70;99.90
14053;DHT22;7101;51.600;7.310;2023-06-22T02:58:05;19.70;99.90
14053;DHT22;7101;51.600;7.310;2023-06-22T03:00:32;19.70;99.90
14053;DHT22;7101;51.600;7.310;2023-06-22T03:02:58;19.70;99.90
14053;DHT22;7101;51.600;7.310;2023-06-22T03:05:25;19.70;99.90
14053;DHT22;7101;51.600;7.310;2023-06-22T03:07:52;19.70;99.90
14053;DHT22;7101;51.600;7.310;2023-06-22T03:10:20;19.80;99.90
14053;DHT22;7101;51.600;7.310;2023-06-22T03:12:47;19.80;99.90
14053;DHT22;7101;51.600;7.310;2023-06-22T03:15:14;19.80;99.90
14053;DHT22;7101;51.600;7.310;2023-06-22T03:17:42;19.80;99.90
14053;DHT22;7101;51.600;7.310;2023-06-22T03:20:10;19.80;99.90
14053;DHT22;7101;51.600;7.310;2023-06-22T03:22:37;19.90;99.90
14053;DHT22;7101;51.600;7.310;2023-06-22T03:25:05;19.90;99.90
14053;DHT22;7101;51.600;7.310;2023-06-22T03:27:37;19.90;99.90
14053;DHT22;7101;51.600;7.310;2023-06-22T03:30:05;19.90;99.90
14053;DHT22;7101;51.600;7.310;2023-06-22T03:32:32;19.80;99.90
14053;DHT22;7101;51.600;7.310;2023-06-22T03:34:59;19.80;99.90
14053;DHT22;7101;51.600;7.310;2023-06-22T03:37:26;19.80;99.90
14053;DHT22;7101;51.600;7.310;2023-06-22T03:39:53;19.80;99.90
14053;DHT22;7101;51.600;7.310;2023-06-22T03:42:20;19.80;99.90
14053;DHT22;7101;51.600;7.310;2023-06-22T03:44:48;19.80;99.90
14053;DHT22;7101;51.600;7.310;2023-06-22T03:47:15;19.70;99.90
14053;DHT22;7101;51.600;7.310;2023-06-22T03:49:42;19.80;99.90
14053;DHT22;7101;51.600;7.310;2023-06-22T03:52:09;19.70;99.90
14053;DHT22;7101;51.600;7.310;2023-06-22T03:54:36;19.70;99.90
14053;DHT22;7101;51.600;7.310;2023-06-22T03:57:04;19.60;99.90
14053;DHT22;7101;51.600;7.310;2023-06-22T03:59:31;19.70;99.90
14053;DHT22;7101;51.600;7.310;2023-06-22T04:01:59;19.70;99.90
14053;DHT22;7101;51.600;7.310;2023-06-22T04:04:26;19.60;99.90
14053;DHT22;7101;51.600;7.310;2023-06-22T04:06:53;19.70;99.90
14053;DHT22;7101;51.600;7.310;2023-06-22T04:09:20;19.70;99.90
14053;DHT22;7101;51.600;7.310;2023-06-22T04:11:48;19.70;99.90
14053;DHT22;7101;51.600;7.310;2023-06-22T04:14:15;19.60;99.90
14053;DHT22;7101;51.600;7.310;2023-06-22T04:16:42;19.70;99.90
14053;DHT22;7101;51.600;7.310;2023-06-22T04:19:10;19.80;99.90
14053;DHT22;7101;51.600;7.310;2023-06-22T04:21:42;19.80;99.90
14053;DHT22;7101;51.600;7.310;2023-06-22T04:24:08;19.80;99.90
14053;DHT22;7101;51.600;7.310;2023-06-22T04:26:35;19.90;99.90
14053;DHT22;7101;51.600;7.310;2023-06-22T04:29:03;20.00;99.90
14053;DHT22;7101;51.600;7.310;2023-06-22T04:31:31;20.20;99.90
14053;DHT22;7101;51.600;7.310;2023-06-22T04:34:02;20.30;99.90
14053;DHT22;7101;51.600;7.310;2023-06-22T04:36:34;20.40;99.90
14053;DHT22;7101;51.600;7.310;2023-06-22T04:39:04;20.50;99.90
14053;DHT22;7101;51.600;7.310;2023-06-22T04:41:32;20.50;99.90
14053;DHT22;7101;51.600;7.310;2023-06-22T04:44:08;20.50;99.90
14053;DHT22;7101;51.600;7.310;2023-06-22T04:46:35;20.30;99.90
14053;DHT22;7101;51.600;7.310;2023-06-22T04:49:05;20.30;99.90
14053;DHT22;7101;51.600;7.310;2023-06-22T04:51:37;20.30;99.90
14053;DHT22;7101;51.600;7.310;2023-06-22T04:54:04;20.30;99.90
14053;DHT22;7101;51.600;7.310;2023-06-22T04:56:32;20.40;99.90
14053;DHT22;7101;51.600;7.310;2023-06-22T04:58:58;20.20;99.90
14053;DHT22;7101;51.600;7.310;2023-06-22T05:01:25;20.30;99.90
14053;DHT22;7101;51.600;7.310;2023-06-22T05:03:52;20.30;99.90
14053;DHT22;7101;51.600;7.310;2023-06-22T05:06:21;20.30;99.90
14053;DHT22;7101;51.600;7.310;2023-06-22T05:08:52;20.40;99.90
14053;DHT22;7101;51.600;7.310;2023-06-22T05:11:23;20.50;99.90
14053;DHT22;7101;51.600;7.310;2023-06-22T05:13:50;20.50;99.90
14053;DHT22;7101;51.600;7.310;2023-06-22T05:16:17;20.70;99.90
14053;DHT22;7101;51.600;7.310;2023-06-22T05:18:53;20.70;99.90
14053;DHT22;7101;51.600;7.310;2023-06-22T05:21:22;20.70;99.90
14053;DHT22;7101;51.600;7.310;2023-06-22T05:23:51;20.60;99.90
14053;DHT22;7101;51.600;7.310;2023-06-22T05:26:18;20.60;99.90
14053;DHT22;7101;51.600;7.310;2023-06-22T05:28:45;20.50;99.90
14053;DHT22;7101;51.600;7.310;2023-06-22T05:31:13;20.60;99.90
14053;DHT22;7101;51.600;7.310;2023-06-22T05:33:40;20.50;99.90
14053;DHT22;7101;51.600;7.310;2023-06-22T05:36:07;20.60;99.90
14053;DHT22;7101;51.600;7.310;2023-06-22T05:38:34;20.30;99.90
14053;DHT22;7101;51.600;7.310;2023-06-22T05:41:03;20.40;99.90
14053;DHT22;7101;51.600;7.310;2023-06-22T05:43:30;20.50;99.90
14053;DHT22;7101;51.600;7.310;2023-06-22T05:45:57;20.70;99.90
14053;DHT22;7101;51.600;7.310;2023-06-22T05:48:24;20.70;99.90
14053;DHT22;7101;51.600;7.310;2023-06-22T05:50:51;20.60;99.90
14053;DHT22;7101;51.600;7.310;2023-06-22T05:53:17;20.70;99.90
14053;DHT22;7101;51.600;7.310;2023-06-22T05:55:44;20.70;99.90
14053;DHT22;7101;51.600;7.310;2023-06-22T05:58:12;20.70;99.90
14053;DHT22;7101;51.600;7.310;2023-06-22T06:00:40;20.90;99.90
14053;DHT22;7101;51.600;7.310;2023-06-22T06:03:07;20.90;99.90
14053;DHT22;7101;51.600;7.310;2023-06-22T06:05:34;20.90;99.90
14053;DHT22;7101;51.600;7.310;2023-06-22T06:08:03;21.00;99.90
14053;DHT22;7101;51.600;7.310;2023-06-22T06:10:30;20.90;99.90
14053;DHT22;7101;51.600;7.310;2023-06-22T06:12:58;20.90;99.90
14053;DHT22;7101;51.600;7.310;2023-06-22T06:15:29;21.00;99.90
14053;DHT22;7101;51.600;7.310;2023-06-22T06:17:55;21.20;99.90
14053;DHT22;7101;51.600;7.310;2023-06-22T06:20:24;21.10;99.90
14053;DHT22;7101;51.600;7.310;2023-06-22T06:22:53;21.20;99.90
14053;DHT22;7101;51.600;7.310;2023-06-22T06:25:20;21.50;99.90
14053;DHT22;7101;51.600;7.310;2023-06-22T06:27:48;21.70;99.90
14053;DHT22;7101;51.600;7.310;2023-06-22T06:30:16;21.80;99.90
14053;DHT22;7101;51.600;7.310;2023-06-22T06:32:46;21.80;99.90
14053;DHT22;7101;51.600;7.310;2023-06-22T06:35:14;21.90;99.90
14053;DHT22;7101;51.600;7.310;2023-06-22T06:37:43;21.80;99.90
14053;DHT22;7101;51.600;7.310;2023-06-22T06:40:11;21.90;99.90
14053;DHT22;7101;51.600;7.310;2023-06-22T06:42:41;22.00;99.90
14053;DHT22;7101;51.600;7.310;2023-06-22T06:45:11;22.00;99.90
14053;DHT22;7101;51.600;7.310;2023-06-22T06:47:38;22.00;99.90
14053;DHT22;7101;51.600;7.310;2023-06-22T06:50:08;21.80;99.90
14053;DHT22;7101;51.600;7.310;2023-06-22T06:52:35;21.80;99.90
14053;DHT22;7101;51.600;7.310;2023-06-22T06:55:02;21.80;99.90
14053;DHT22;7101;51.600;7.310;2023-06-22T06:57:33;21.70;99.90
14053;DHT22;7101;51.600;7.310;2023-06-22T07:00:00;21.70;99.90
14053;DHT22;7101;51.600;7.310;2023-06-22T07:02:33;21.60;99.90
14053;DHT22;7101;51.600;7.310;2023-06-22T07:04:59;21.60;99.90
14053;DHT22;7101;51.600;7.310;2023-06-22T07:07:31;21.70;99.90
14053;DHT22;7101;51.600;7.310;2023-06-22T07:09:58;21.80;99.90
14053;DHT22;7101;51.600;7.310;2023-06-22T07:12:25;21.90;99.90
14053;DHT22;7101;51.600;7.310;2023-06-22T07:14:52;22.10;99.90
14053;DHT22;7101;51.600;7.310;2023-06-22T07:17:18;22.30;99.90
14053;DHT22;7101;51.600;7.310;2023-06-22T07:19:45;22.40;99.90
14053;DHT22;7101;51.600;7.310;2023-06-22T07:22:12;22.40;99.90
14053;DHT22;7101;51.600;7.310;2023-06-22T07:24:40;22.50;99.90
14053;DHT22;7101;51.600;7.310;2023-06-22T07:27:07;22.70;99.90
14053;DHT22;7101;51.600;7.310;2023-06-22T07:29:36;22.50;99.90
14053;DHT22;7101;51.600;7.310;2023-06-22T07:32:06;22.50;99.90
14053;DHT22;7101;51.600;7.310;2023-06-22T07:34:34;22.50;99.90
14053;DHT22;7101;51.600;7.310;2023-06-22T07:37:01;22.60;99.90
14053;DHT22;7101;51.600;7.310;2023-06-22T07:39:30;22.70;99.90
14053;DHT22;7101;51.600;7.310;2023-06-22T07:41:59;22.70;99.90
14053;DHT22;7101;51.600;7.310;2023-06-22T07:44:26;22.90;99.90
14053;DHT22;7101;51.600;7.310;2023-06-22T07:46:53;22.70;99.90
14053;DHT22;7101;51.600;7.310;2023-06-22T07:49:20;22.80;99.90
14053;DHT22;7101;51.600;7.310;2023-06-22T07:51:47;22.80;99.90
14053;DHT22;7101;51.600;7.310;2023-06-22T07:54:14;22.70;99.90
14053;DHT22;7101;51.600;7.310;2023-06-22T07:56:41;22.60;99.90
14053;DHT22;7101;51.600;7.310;2023-06-22T07:59:10;22.60;99.90
14053;DHT22;7101;51.600;7.310;2023-06-22T08:01:36;22.70;99.90
14053;DHT22;7101;51.600;7.310;2023-06-22T08:04:03;22.80;99.90
14053;DHT22;7101;51.600;7.310;2023-06-22T08:06:31;23.00;99.90
14053;DHT22;7101;51.600;7.310;2023-06-22T08:08:58;23.10;99.90
14053;DHT22;7101;51.600;7.310;2023-06-22T08:11:25;23.40;99.90
14053;DHT22;7101;51.600;7.310;2023-06-22T08:13:52;24.00;99.90
14053;DHT22;7101;51.600;7.310;2023-06-22T08:16:22;24.60;99.90
14053;DHT22;7101;51.600;7.310;2023-06-22T08:18:49;24.70;99.90
14053;DHT22;7101;51.600;7.310;2023-06-22T08:21:16;24.60;99.90
14053;DHT22;7101;51.600;7.310;2023-06-22T08:23:43;25.00;99.90
14053;DHT22;7101;51.600;7.310;2023-06-22T08:26:10;26.10;99.90
14053;DHT22;7101;51.600;7.310;2023-06-22T08:28:36;26.10;99.90
14053;DHT22;7101;51.600;7.310;2023-06-22T08:31:03;25.90;99.90
14053;DHT22;7101;51.600;7.310;2023-06-22T08:33:32;26.00;99.90
14053;DHT22;7101;51.600;7.310;2023-06-22T08:35:58;26.10;99.90
14053;DHT22;7101;51.600;7.310;2023-06-22T08:38:26;26.00;99.90
14053;DHT22;7101;51.600;7.310;2023-06-22T08:40:53;25.80;99.90
14053;DHT22;7101;51.600;7.310;2023-06-22T08:43:20;25.50;99.90
14053;DHT22;7101;51.600;7.310;2023-06-22T08:45:47;25.50;99.90
14053;DHT22;7101;51.600;7.310;2023-06-22T08:48:14;25.30;99.90
14053;DHT22;7101;51.600;7.310;2023-06-22T08:50:42;25.70;99.90
14053;DHT22;7101;51.600;7.310;2023-06-22T08:53:09;26.90;99.90
14053;DHT22;7101;51.600;7.310;2023-06-22T08:55:37;27.70;99.90
14053;DHT22;7101;51.600;7.310;2023-06-22T08:58:04;27.00;99.90
14053;DHT22;7101;51.600;7.310;2023-06-22T09:00:32;26.40;99.90
14053;DHT22;7101;51.600;7.310;2023-06-22T09:03:01;26.20;99.90
14053;DHT22;7101;51.600;7.310;2023-06-22T09:05:28;26.20;99.90
14053;DHT22;7101;51.600;7.310;2023-06-22T09:07:57;25.90;99.90
14053;DHT22;7101;51.600;7.310;2023-06-22T09:10:25;25.80;99.90
14053;DHT22;7101;51.600;7.310;2023-06-22T09:12:53;25.70;99.90
14053;DHT22;7101;51.600;7.310;2023-06-22T09:15:20;25.80;99.90
14053;DHT22;7101;51.600;7.310;2023-06-22T09:17:46;25.90;99.90
14053;DHT22;7101;51.600;7.310;2023-06-22T09:20:13;25.80;99.90
14053;DHT22;7101;51.600;7.310;2023-06-22T09:22:41;26.00;99.90
14053;DHT22;7101;51.600;7.310;2023-06-22T09:25:09;26.30;99.90
14053;DHT22;7101;51.600;7.310;2023-06-22T09:27:36;26.40;99.90
14053;DHT22;7101;51.600;7.310;2023-06-22T09:30:05;26.40;99.90
14053;DHT22;7101;51.600;7.310;2023-06-22T09:32:33;26.60;99.90
14053;DHT22;7101;51.600;7.310;2023-06-22T09:35:03;26.70;99.90
14053;DHT22;7101;51.600;7.310;2023-06-22T09:37:32;26.50;99.90
14053;DHT22;7101;51.600;7.310;2023-06-22T09:39:59;26.70;99.90
14053;DHT22;7101;51.600;7.310;2023-06-22T09:42:27;26.70;99.90
14053;DHT22;7101;51.600;7.310;2023-06-22T09:44:54;26.50;99.90
14053;DHT22;7101;51.600;7.310;2023-06-22T09:47:20;26.60;99.90
14053;DHT22;7101;51.600;7.310;2023-06-22T09:49:47;26.60;99.90
14053;DHT22;7101;51.600;7.310;2023-06-22T09:52:14;26.50;99.90
14053;DHT22;7101;51.600;7.310;2023-06-22T09:54:41;26.80;99.90
14053;DHT22;7101;51.600;7.310;2023-06-22T09:57:08;26.80;99.90
14053;DHT22;7101;51.600;7.310;2023-06-22T09:59:36;27.20;99.90
14053;DHT22;7101;51.600;7.310;2023-06-22T10:02:03;28.00;99.90
14053;DHT22;7101;51.600;7.310;2023-06-22T10:04:30;28.40;99.90
14053;DHT22;7101;51.600;7.310;2023-06-22T10:06:57;28.30;99.90
14053;DHT22;7101;51.600;7.310;2023-06-22T10:09:24;28.10;99.90
14053;DHT22;7101;51.600;7.310;2023-06-22T10:11:51;27.70;99.90
14053;DHT22;7101;51.600;7.310;2023-06-22T10:14:18;27.30;99.90
14053;DHT22;7101;51.600;7.310;2023-06-22T10:16:48;27.30;99.90
14053;DHT22;7101;51.600;7.310;2023-06-22T10:19:17;27.10;99.90
14053;DHT22;7101;51.600;7.310;2023-06-22T10:21:45;26.90;99.90
14053;DHT22;7101;51.600;7.310;2023-06-22T10:24:12;26.90;99.90
14053;DHT22;7101;51.600;7.310;2023-06-22T10:26:39;27.00;99.90
14053;DHT22;7101;51.600;7.310;2023-06-22T10:29:06;27.00;99.90
14053;DHT22;7101;51.600;7.310;2023-06-22T10:31:33;26.80;99.90
14053;DHT22;7101;51.600;7.310;2023-06-22T10:34:01;26.80;99.90
14053;DHT22;7101;51.600;7.310;2023-06-22T10:36:28;26.90;99.90
14053;DHT22;7101;51.600;7.310;2023-06-22T10:38:55;26.80;99.90
14053;DHT22;7101;51.600;7.310;2023-06-22T10:41:24;26.80;99.90
14053;DHT22;7101;51.600;7.310;2023-06-22T10:43:54;27.00;99.90
14053;DHT22;7101;51.600;7.310;2023-06-22T10:46:21;27.20;99.90
14053;DHT22;7101;51.600;7.310;2023-06-22T10:48:48;27.50;99.90
14053;DHT22;7101;51.600;7.310;2023-06-22T10:51:17;27.90;99.90
14053;DHT22;7101;51.600;7.310;2023-06-22T10:53:44;28.00;99.90
14053;DHT22;7101;51.600;7.310;2023-06-22T10:56:11;28.00;99.90
14053;DHT22;7101;51.600;7.310;2023-06-22T10:58:38;28.40;99.90
14053;DHT22;7101;51.600;7.310;2023-06-22T11:01:05;28.40;99.90
14053;DHT22;7101;51.600;7.310;2023-06-22T11:03:33;28.30;99.90
14053;DHT22;7101;51.600;7.310;2023-06-22T11:06:00;28.20;99.90
14053;DHT22;7101;51.600;7.310;2023-06-22T11:08:28;28.10;99.90
14053;DHT22;7101;51.600;7.310;2023-06-22T11:10:55;27.90;99.90
14053;DHT22;7101;51.600;7.310;2023-06-22T11:13:21;27.50;99.90
14053;DHT22;7101;51.600;7.310;2023-06-22T11:15:48;27.30;99.90
14053;DHT22;7101;51.600;7.310;2023-06-22T11:18:16;27.20;99.90
14053;DHT22;7101;51.600;7.310;2023-06-22T11:20:43;27.00;99.90
14053;DHT22;7101;51.600;7.310;2023-06-22T11:23:10;27.00;99.90
14053;DHT22;7101;51.600;7.310;2023-06-22T11:25:39;26.70;99.90
14053;DHT22;7101;51.600;7.310;2023-06-22T11:28:08;26.60;99.90
14053;DHT22;7101;51.600;7.310;2023-06-22T11:30:35;26.40;99.90
14053;DHT22;7101;51.600;7.310;2023-06-22T11:33:01;26.30;99.90
14053;DHT22;7101;51.600;7.310;2023-06-22T11:35:28;26.10;99.90
14053;DHT22;7101;51.600;7.310;2023-06-22T11:37:55;25.90;99.90
14053;DHT22;7101;51.600;7.310;2023-06-22T11:40:22;25.90;99.90
14053;DHT22;7101;51.600;7.310;2023-06-22T11:42:50;25.70;99.90
14053;DHT22;7101;51.600;7.310;2023-06-22T11:45:17;25.20;99.90
14053;DHT22;7101;51.600;7.310;2023-06-22T11:47:45;24.90;99.90
14053;DHT22;7101;51.600;7.310;2023-06-22T11:50:12;24.60;99.90
14053;DHT22;7101;51.600;7.310;2023-06-22T11:52:39;24.30;99.90
14053;DHT22;7101;51.600;7.310;2023-06-22T11:55:07;24.00;99.90
14053;DHT22;7101;51.600;7.310;2023-06-22T11:57:35;23.50;99.90
14053;DHT22;7101;51.600;7.310;2023-06-22T12:00:06;23.20;99.90
14053;DHT22;7101;51.600;7.310;2023-06-22T12:02:42;23.00;99.90
14053;DHT22;7101;51.600;7.310;2023-06-22T12:05:10;22.70;99.90
14053;DHT22;7101;51.600;7.310;2023-06-22T12:07:37;22.60;99.90
14053;DHT22;7101;51.600;7.310;2023-06-22T12:10:05;22.40;99.90
14053;DHT22;7101;51.600;7.310;2023-06-22T12:12:32;22.30;99.90
14053;DHT22;7101;51.600;7.310;2023-06-22T12:14:59;22.20;99.90
14053;DHT22;7101;51.600;7.310;2023-06-22T12:17:30;22.20;99.90
14053;DHT22;7101;51.600;7.310;2023-06-22T12:19:58;22.00;99.90
14053;DHT22;7101;51.600;7.310;2023-06-22T12:22:24;21.80;99.90
14053;DHT22;7101;51.600;7.310;2023-06-22T12:24:51;21.70;99.90
14053;DHT22;7101;51.600;7.310;2023-06-22T12:27:18;21.70;99.90
14053;DHT22;7101;51.600;7.310;2023-06-22T12:29:45;21.70;99.90
14053;DHT22;7101;51.600;7.310;2023-06-22T12:32:14;21.70;99.90
14053;DHT22;7101;51.600;7.310;2023-06-22T12:34:43;21.60;99.90
14053;DHT22;7101;51.600;7.310;2023-06-22T12:37:11;21.60;99.90
14053;DHT22;7101;51.600;7.310;2023-06-22T12:39:40;21.60;99.90
14053;DHT22;7101;51.600;7.310;2023-06-22T12:42:08;21.60;99.90
14053;DHT22;7101;51.600;7.310;2023-06-22T12:44:38;21.60;99.90
14053;DHT22;7101;51.600;7.310;2023-06-22T12:47:05;21.60;99.90
14053;DHT22;7101;51.600;7.310;2023-06-22T12:49:33;21.70;99.90
14053;DHT22;7101;51.600;7.310;2023-06-22T12:52:02;21.70;99.90
14053;DHT22;7101;51.600;7.310;2023-06-22T12:54:29;21.70;99.90
14053;DHT22;7101;51.600;7.310;2023-06-22T12:56:56;21.60;99.90
14053;DHT22;7101;51.600;7.310;2023-06-22T12:59:23;21.50;99.90
14053;DHT22;7101;51.600;7.310;2023-06-22T13:01:50;21.50;99.90
14053;DHT22;7101;51.600;7.310;2023-06-22T13:04:16;21.50;99.90
14053;DHT22;7101;51.600;7.310;2023-06-22T13:06:44;21.50;99.90
14053;DHT22;7101;51.600;7.310;2023-06-22T13:09:15;21.60;99.90
14053;DHT22;7101;51.600;7.310;2023-06-22T13:11:42;21.60;99.90
14053;DHT22;7101;51.600;7.310;2023-06-22T13:14:10;21.60;99.90
14053;DHT22;7101;51.600;7.310;2023-06-22T13:16:36;21.70;99.90
14053;DHT22;7101;51.600;7.310;2023-06-22T13:19:03;21.60;99.90
14053;DHT22;7101;51.600;7.310;2023-06-22T13:21:30;21.70;99.90
14053;DHT22;7101;51.600;7.310;2023-06-22T13:23:59;21.60;99.90
14053;DHT22;7101;51.600;7.310;2023-06-22T13:26:28;21.70;99.90
14053;DHT22;7101;51.600;7.310;2023-06-22T13:28:55;21.70;99.90
14053;DHT22;7101;51.600;7.310;2023-06-22T13:31:22;21.80;99.90
14053;DHT22;7101;51.600;7.310;2023-06-22T13:33:49;21.90;99.90
14053;DHT22;7101;51.600;7.310;2023-06-22T13:36:18;22.10;99.90
14053;DHT22;7101;51.600;7.310;2023-06-22T13:38:45;22.20;99.90
14053;DHT22;7101;51.600;7.310;2023-06-22T13:41:12;22.30;99.90
14053;DHT22;7101;51.600;7.310;2023-06-22T13:43:41;22.30;99.90
14053;DHT22;7101;51.600;7.310;2023-06-22T13:46:07;22.30;99.90
14053;DHT22;7101;51.600;7.310;2023-06-22T13:48:36;22.10;99.90
14053;DHT22;7101;51.600;7.310;2023-06-22T13:51:03;22.20;99.90
14053;DHT22;7101;51.600;7.310;2023-06-22T13:53:30;22.20;99.90
14053;DHT22;7101;51.600;7.310;2023-06-22T13:55:57;22.10;99.90
14053;DHT22;7101;51.600;7.310;2023-06-22T13:58:24;22.00;99.90
14053;DHT22;7101;51.600;7.310;2023-06-22T14:00:52;21.90;99.90
14053;DHT22;7101;51.600;7.310;2023-06-22T14:03:19;22.00;99.90
14053;DHT22;7101;51.600;7.310;2023-06-22T14:05:45;22.00;99.90
14053;DHT22;7101;51.600;7.310;2023-06-22T14:08:13;22.00;99.90
14053;DHT22;7101;51.600;7.310;2023-06-22T14:10:40;22.10;99.90
14053;DHT22;7101;51.600;7.310;2023-06-22T14:13:07;22.00;99.90
14053;DHT22;7101;51.600;7.310;2023-06-22T14:15:34;22.20;99.90
14053;DHT22;7101;51.600;7.310;2023-06-22T14:18:02;22.50;99.90
14053;DHT22;7101;51.600;7.310;2023-06-22T14:20:29;23.00;99.90
14053;DHT22;7101;51.600;7.310;2023-06-22T14:22:56;23.30;99.90
14053;DHT22;7101;51.600;7.310;2023-06-22T14:25:23;23.60;99.90
14053;DHT22;7101;51.600;7.310;2023-06-22T14:27:50;23.50;99.90
14053;DHT22;7101;51.600;7.310;2023-06-22T14:30:19;23.50;99.90
14053;DHT22;7101;51.600;7.310;2023-06-22T14:32:46;23.50;99.90
14053;DHT22;7101;51.600;7.310;2023-06-22T14:35:16;23.40;99.90
14053;DHT22;7101;51.600;7.310;2023-06-22T14:37:43;23.30;99.90
14053;DHT22;7101;51.600;7.310;2023-06-22T14:40:12;23.20;99.90
14053;DHT22;7101;51.600;7.310;2023-06-22T14:42:38;23.10;99.90
14053;DHT22;7101;51.600;7.310;2023-06-22T14:45:06;23.10;99.90
14053;DHT22;7101;51.600;7.310;2023-06-22T14:47:33;23.10;99.90
14053;DHT22;7101;51.600;7.310;2023-06-22T14:50:00;23.10;99.90
14053;DHT22;7101;51.600;7.310;2023-06-22T14:52:28;22.90;99.90
14053;DHT22;7101;51.600;7.310;2023-06-22T14:54:55;22.80;99.90
14053;DHT22;7101;51.600;7.310;2023-06-22T14:57:22;22.70;99.90
14053;DHT22;7101;51.600;7.310;2023-06-22T14:59:49;22.80;99.90
14053;DHT22;7101;51.600;7.310;2023-06-22T15:02:16;22.90;99.90
14053;DHT22;7101;51.600;7.310;2023-06-22T15:04:43;23.00;99.90
14053;DHT22;7101;51.600;7.310;2023-06-22T15:07:11;23.00;99.90
14053;DHT22;7101;51.600;7.310;2023-06-22T15:09:39;22.90;99.90
14053;DHT22;7101;51.600;7.310;2023-06-22T15:12:08;22.80;99.90
14053;DHT22;7101;51.600;7.310;2023-06-22T15:14:38;22.70;99.90
14053;DHT22;7101;51.600;7.310;2023-06-22T15:17:06;22.60;99.90
14053;DHT22;7101;51.600;7.310;2023-06-22T15:19:34;22.50;99.90
14053;DHT22;7101;51.600;7.310;2023-06-22T15:22:02;22.40;99.90
14053;DHT22;7101;51.600;7.310;2023-06-22T15:24:29;22.30;99.90
14053;DHT22;7101;51.600;7.310;2023-06-22T15:26:57;22.10;99.90
14053;DHT22;7101;51.600;7.310;2023-06-22T15:29:24;22.00;99.90
14053;DHT22;7101;51.600;7.310;2023-06-22T15:31:51;22.00;99.90
14053;DHT22;7101;51.600;7.310;2023-06-22T15:34:18;21.90;99.90
14053;DHT22;7101;51.600;7.310;2023-06-22T15:36:46;21.70;99.90
14053;DHT22;7101;51.600;7.310;2023-06-22T15:39:13;21.60;99.90
14053;DHT22;7101;51.600;7.310;2023-06-22T15:41:42;21.60;99.90
14053;DHT22;7101;51.600;7.310;2023-06-22T15:44:10;21.50;99.90
14053;DHT22;7101;51.600;7.310;2023-06-22T15:46:37;21.50;99.90
14053;DHT22;7101;51.600;7.310;2023-06-22T15:49:06;21.50;99.90